Terminal Aerodrome Forecast
Issued by NWS

Home | Current Version | Previous Version | Text Only | Print | Product List | Glossary On
Versions: 1 2 3 4 5 6 7 8 9 10 11 12 13 14 15 16 17 18 19
000
FTUS42 KTAE 152300
TAFVLD
TAF
KVLD 152320Z 1600/1624 00000KT P6SM OVC250
     FM161100 00000KT 4SM BR BKN004
     FM161500 25004KT P6SM BKN250
     FM161900 20006KT P6SM TSRA SCT030CB BKN250=

USA.gov is the U.S. government's official web portal to all federal, state and local government web resources and services.